createdAt,value
2023-04-03T00:00:35.517Z,51.30
2023-04-03T00:03:02.569Z,51.70
2023-04-03T00:05:29.476Z,51.40
2023-04-03T00:07:56.210Z,51.40
2023-04-03T00:10:23.153Z,52.10
2023-04-03T00:12:49.918Z,51.80
2023-04-03T00:15:16.789Z,51.80
2023-04-03T00:17:43.573Z,52.10
2023-04-03T00:20:10.660Z,52.40
2023-04-03T00:22:37.488Z,52.10
2023-04-03T00:25:04.988Z,52.60
2023-04-03T00:27:31.866Z,52.10
2023-04-03T00:29:58.584Z,52.00
2023-04-03T00:32:25.499Z,52.90
2023-04-03T00:34:52.263Z,53.10
2023-04-03T00:37:19.015Z,52.90
2023-04-03T00:39:46.439Z,52.90
2023-04-03T00:42:13.440Z,52.20
2023-04-03T00:44:40.290Z,51.70
2023-04-03T00:47:10.322Z,51.00
2023-04-03T00:49:38.349Z,51.40
2023-04-03T00:52:11.081Z,50.80
2023-04-03T00:54:38.405Z,50.30
2023-04-03T00:57:07.994Z,50.00
2023-04-03T00:59:39.888Z,49.60
2023-04-03T01:02:06.684Z,50.00
2023-04-03T01:04:40.898Z,50.40
2023-04-03T01:07:16.972Z,49.70
2023-04-03T01:09:45.725Z,50.30
2023-04-03T01:12:22.836Z,50.40
2023-04-03T01:14:52.474Z,50.10
2023-04-03T01:17:57.442Z,49.90
2023-04-03T01:20:24.196Z,48.50
2023-04-03T01:23:04.123Z,48.60
2023-04-03T01:25:31.098Z,48.70
2023-04-03T01:27:57.898Z,48.70
2023-04-03T01:30:31.566Z,48.50
2023-04-03T01:32:58.514Z,48.30
2023-04-03T01:35:25.309Z,48.40
2023-04-03T01:37:52.076Z,48.60
2023-04-03T01:40:18.985Z,47.80
2023-04-03T01:42:46.332Z,47.70
2023-04-03T01:45:13.325Z,48.10
2023-04-03T01:47:40.125Z,48.20
2023-04-03T01:50:07.378Z,48.20
2023-04-03T01:52:34.177Z,48.50
2023-04-03T01:55:00.973Z,48.50
2023-04-03T01:57:27.837Z,48.10
2023-04-03T01:59:54.637Z,48.40
2023-04-03T02:02:21.444Z,48.40
2023-04-03T02:04:48.225Z,48.70
2023-04-03T02:07:14.995Z,49.00
2023-04-03T02:09:41.820Z,49.20
2023-04-03T02:12:08.857Z,48.90
2023-04-03T02:14:35.590Z,48.90
2023-04-03T02:17:06.096Z,48.80
2023-04-03T02:19:32.965Z,48.80
2023-04-03T02:22:00.767Z,49.00
2023-04-03T02:24:27.603Z,49.70
2023-04-03T02:26:54.428Z,49.70
2023-04-03T02:29:21.255Z,49.60
2023-04-03T02:31:47.986Z,49.90
2023-04-03T02:34:14.774Z,49.90
2023-04-03T02:36:41.606Z,50.10
2023-04-03T02:39:08.766Z,50.20
2023-04-03T02:41:38.549Z,50.20
2023-04-03T02:44:07.434Z,50.50
2023-04-03T02:46:34.446Z,50.40
2023-04-03T02:49:01.260Z,50.60
2023-04-03T02:51:28.027Z,51.00
2023-04-03T02:53:54.872Z,50.70
2023-04-03T02:56:22.183Z,50.50
2023-04-03T02:58:49.173Z,50.50
2023-04-03T03:01:16.293Z,51.30
2023-04-03T03:03:43.232Z,51.20
2023-04-03T03:06:15.951Z,51.40
2023-04-03T03:08:43.135Z,50.30
2023-04-03T03:11:10.982Z,50.40
2023-04-03T03:13:38.161Z,50.20
2023-04-03T03:16:05.247Z,51.10
2023-04-03T03:18:32.643Z,51.60
2023-04-03T03:21:01.124Z,51.90
2023-04-03T03:23:29.458Z,51.90
2023-04-03T03:25:58.064Z,52.00
2023-04-03T03:28:25.357Z,52.70
2023-04-03T03:30:52.179Z,52.00
2023-04-03T03:33:19.552Z,52.30
2023-04-03T03:35:46.905Z,52.40
2023-04-03T03:38:13.694Z,52.50
2023-04-03T03:40:40.657Z,52.70
2023-04-03T03:43:07.679Z,53.10
2023-04-03T03:45:34.560Z,53.10
2023-04-03T03:48:02.052Z,53.30
2023-04-03T03:50:28.766Z,53.50
2023-04-03T03:52:55.608Z,53.90
2023-04-03T03:55:22.817Z,54.00
2023-04-03T03:57:49.708Z,54.30
2023-04-03T04:00:17.182Z,54.60
2023-04-03T04:02:44.239Z,55.50
2023-04-03T04:05:11.118Z,54.90
2023-04-03T04:07:37.869Z,54.80
2023-04-03T04:10:05.537Z,54.90
2023-04-03T04:12:32.316Z,55.00
2023-04-03T04:14:59.027Z,55.80
2023-04-03T04:17:25.821Z,55.60
2023-04-03T04:19:52.576Z,55.70
2023-04-03T04:22:19.474Z,55.40
2023-04-03T04:24:46.252Z,55.40
2023-04-03T04:27:13.163Z,55.60
2023-04-03T04:29:39.899Z,56.10
2023-04-03T04:32:06.684Z,56.00
2023-04-03T04:34:33.506Z,56.40
2023-04-03T04:37:00.416Z,56.30
2023-04-03T04:39:27.377Z,56.20
2023-04-03T04:41:54.093Z,56.70
2023-04-03T04:44:21.543Z,55.90
2023-04-03T04:46:48.274Z,56.70
2023-04-03T04:49:14.990Z,56.70
2023-04-03T04:51:51.574Z,56.70
2023-04-03T04:54:19.202Z,56.80
2023-04-03T04:56:45.954Z,56.80
2023-04-03T04:59:12.733Z,56.80
2023-04-03T05:01:39.838Z,57.00
2023-04-03T05:04:06.648Z,56.00
2023-04-03T05:06:33.940Z,56.60
2023-04-03T05:09:00.745Z,56.10
2023-04-03T05:11:27.844Z,56.10
2023-04-03T05:13:54.715Z,56.20
2023-04-03T05:16:21.507Z,56.20
2023-04-03T05:18:48.423Z,56.10
2023-04-03T05:21:15.224Z,55.90
2023-04-03T05:23:42.280Z,56.00
2023-04-03T05:26:08.983Z,56.70
2023-04-03T05:28:35.954Z,57.00
2023-04-03T05:31:02.782Z,57.60
2023-04-03T05:33:29.690Z,57.90
2023-04-03T05:35:56.558Z,58.10
2023-04-03T05:38:23.507Z,58.40
2023-04-03T05:40:50.454Z,58.20
2023-04-03T05:43:17.237Z,58.00
2023-04-03T05:45:46.688Z,58.20
2023-04-03T05:48:13.874Z,57.50
2023-04-03T05:50:42.665Z,57.80
2023-04-03T05:53:18.943Z,57.70
2023-04-03T05:55:46.105Z,57.50
2023-04-03T05:58:12.867Z,57.80
2023-04-03T06:00:39.893Z,57.80
2023-04-03T06:03:07.387Z,59.30
2023-04-03T06:05:34.188Z,58.60
2023-04-03T06:08:01.384Z,58.80
2023-04-03T06:10:28.262Z,58.50
2023-04-03T06:12:55.118Z,58.80
2023-04-03T06:15:22.262Z,59.40
2023-04-03T06:17:48.988Z,59.30
2023-04-03T06:20:15.780Z,59.00
2023-04-03T06:22:43.010Z,58.90
2023-04-03T06:25:11.128Z,59.00
2023-04-03T06:27:38.283Z,59.10
2023-04-03T06:30:07.460Z,58.10
2023-04-03T06:32:34.377Z,58.30
2023-04-03T06:35:01.488Z,58.60
2023-04-03T06:37:29.894Z,58.80
2023-04-03T06:39:56.965Z,59.30
2023-04-03T06:42:24.393Z,58.90
2023-04-03T06:44:51.254Z,59.20
2023-04-03T06:47:18.675Z,59.60
2023-04-03T06:49:46.065Z,59.60
2023-04-03T06:52:13.268Z,60.00
2023-04-03T06:54:41.169Z,59.50
2023-04-03T06:57:08.710Z,58.70
2023-04-03T06:59:36.269Z,59.40
2023-04-03T07:02:03.630Z,59.10
2023-04-03T07:04:30.907Z,58.30
2023-04-03T07:06:57.775Z,57.80
2023-04-03T07:09:24.570Z,57.50
2023-04-03T07:11:51.317Z,57.10
2023-04-03T07:14:18.113Z,56.90
2023-04-03T07:16:44.788Z,57.00
2023-04-03T07:19:11.576Z,56.80
2023-04-03T07:21:38.405Z,57.00
2023-04-03T07:24:05.731Z,56.90
2023-04-03T07:26:32.650Z,57.20
2023-04-03T07:28:59.428Z,56.10
2023-04-03T07:31:26.366Z,56.40
2023-04-03T07:33:53.202Z,56.40
2023-04-03T07:36:23.137Z,56.80
2023-04-03T07:38:50.308Z,57.00
2023-04-03T07:41:19.259Z,55.90
2023-04-03T07:43:46.315Z,54.90
2023-04-03T07:46:13.816Z,54.40
2023-04-03T07:48:40.740Z,53.90
2023-04-03T07:51:07.851Z,54.50
2023-04-03T07:53:34.978Z,54.80
2023-04-03T07:56:03.608Z,54.80
2023-04-03T07:58:30.777Z,55.80
2023-04-03T08:00:57.628Z,55.30
2023-04-03T08:03:24.736Z,54.50
2023-04-03T08:05:52.055Z,54.40
2023-04-03T08:08:21.719Z,54.60
2023-04-03T08:10:55.208Z,54.30
2023-04-03T08:13:23.134Z,54.80
2023-04-03T08:15:50.178Z,54.00
2023-04-03T08:18:17.291Z,53.40
2023-04-03T08:20:44.472Z,52.50
2023-04-03T08:23:11.599Z,53.30
2023-04-03T08:25:42.622Z,52.90
2023-04-03T08:28:10.695Z,51.80
2023-04-03T08:30:40.934Z,52.00
2023-04-03T08:33:08.424Z,52.40
2023-04-03T08:35:40.664Z,51.90
2023-04-03T08:38:08.656Z,52.50
2023-04-03T08:40:35.432Z,51.20
2023-04-03T08:43:31.420Z,50.90
2023-04-03T08:46:02.062Z,50.90
2023-04-03T08:48:34.142Z,49.70
2023-04-03T08:51:12.944Z,49.10
2023-04-03T08:53:44.840Z,47.80
2023-04-03T08:56:13.960Z,47.10
2023-04-03T08:58:57.114Z,46.30
2023-04-03T09:01:36.056Z,45.20
2023-04-03T09:04:09.627Z,45.90
2023-04-03T09:06:39.257Z,44.30
2023-04-03T09:09:28.124Z,43.50
2023-04-03T09:12:10.057Z,43.10
2023-04-03T09:14:49.909Z,43.70
2023-04-03T09:17:56.218Z,44.10
2023-04-03T09:20:29.002Z,43.80
2023-04-03T09:22:56.290Z,44.90
2023-04-03T09:25:49.974Z,44.70
2023-04-03T09:28:16.946Z,44.30
2023-04-03T09:30:43.766Z,43.70
2023-04-03T09:33:12.024Z,44.10
2023-04-03T09:35:48.247Z,44.10
2023-04-03T09:38:17.376Z,42.60
2023-04-03T09:40:49.436Z,42.70
2023-04-03T09:43:21.932Z,43.60
2023-04-03T09:45:50.949Z,42.60
2023-04-03T09:48:24.405Z,43.10
2023-04-03T09:50:51.425Z,42.50
2023-04-03T09:53:37.043Z,43.50
2023-04-03T09:56:30.932Z,43.30
2023-04-03T09:59:00.683Z,41.50
2023-04-03T10:01:35.349Z,42.80
2023-04-03T10:04:14.157Z,42.90
2023-04-03T10:06:52.746Z,43.30
2023-04-03T10:09:32.434Z,43.30
2023-04-03T10:11:59.441Z,44.60
2023-04-03T10:14:27.292Z,44.60
2023-04-03T10:17:21.509Z,45.00
2023-04-03T10:20:06.115Z,45.40
2023-04-03T10:22:49.216Z,45.80
2023-04-03T10:25:32.950Z,45.40
2023-04-03T10:28:19.245Z,45.30
2023-04-03T10:31:12.376Z,45.10
2023-04-03T10:34:05.997Z,44.40
2023-04-03T10:36:51.354Z,43.70
2023-04-03T10:39:42.315Z,44.50
2023-04-03T10:42:45.853Z,43.90
2023-04-03T10:45:31.361Z,42.90
2023-04-03T10:48:08.110Z,41.80
2023-04-03T10:51:10.217Z,43.00
2023-04-03T10:53:59.583Z,43.40
2023-04-03T10:56:29.072Z,42.50
2023-04-03T10:59:27.679Z,42.50
2023-04-03T11:02:06.523Z,43.80
2023-04-03T11:04:38.789Z,44.30
2023-04-03T11:07:32.740Z,44.50
2023-04-03T11:10:06.982Z,43.50
2023-04-03T11:12:47.149Z,42.60
2023-04-03T11:15:18.902Z,42.50
2023-04-03T11:18:26.999Z,43.00
2023-04-03T11:21:17.533Z,43.30
2023-04-03T11:23:50.015Z,43.00
2023-04-03T11:26:21.983Z,43.10
2023-04-03T11:28:57.356Z,42.50
2023-04-03T11:31:59.626Z,42.70
2023-04-03T11:34:41.665Z,43.20
2023-04-03T11:37:26.074Z,42.00
2023-04-03T11:40:10.207Z,41.00
2023-04-03T11:43:00.600Z,41.30
2023-04-03T11:45:55.850Z,41.20
2023-04-03T11:48:29.562Z,39.70
2023-04-03T11:50:57.760Z,40.00
2023-04-03T11:53:29.793Z,40.40
2023-04-03T11:55:59.271Z,40.40
2023-04-03T11:58:28.202Z,40.50
2023-04-03T12:01:00.528Z,39.20
2023-04-03T12:03:30.736Z,39.20
2023-04-03T12:06:06.630Z,38.60
2023-04-03T12:08:42.897Z,37.20
2023-04-03T12:11:09.655Z,35.80
2023-04-03T12:13:40.258Z,35.40
2023-04-03T12:16:39.619Z,35.00
2023-04-03T12:19:15.871Z,35.80
2023-04-03T12:21:57.863Z,36.10
2023-04-03T12:24:30.568Z,36.20
2023-04-03T12:27:25.628Z,35.20
2023-04-03T12:29:58.941Z,34.70
2023-04-03T12:32:43.921Z,34.50
2023-04-03T12:35:24.624Z,34.10
2023-04-03T12:38:31.769Z,33.50
2023-04-03T12:41:47.793Z,33.20
2023-04-03T12:44:38.109Z,30.10
2023-04-03T12:47:21.965Z,31.60
2023-04-03T12:49:52.673Z,30.80
2023-04-03T12:52:34.897Z,29.00
2023-04-03T12:55:05.916Z,28.10
2023-04-03T12:57:33.851Z,28.50
2023-04-03T13:00:00.880Z,29.90
2023-04-03T13:02:30.938Z,30.40
2023-04-03T13:05:00.747Z,29.90
2023-04-03T13:07:34.539Z,31.00
2023-04-03T13:10:08.519Z,29.60
2023-04-03T13:12:54.080Z,28.60
2023-04-03T13:15:25.944Z,28.80
2023-04-03T13:17:54.660Z,27.40
2023-04-03T13:20:23.724Z,26.90
2023-04-03T13:23:12.076Z,27.40
2023-04-03T13:25:43.884Z,28.00
2023-04-03T13:28:20.404Z,27.50
2023-04-03T13:30:57.985Z,27.90
2023-04-03T13:33:32.453Z,28.30
2023-04-03T13:36:05.631Z,28.60
2023-04-03T13:38:35.036Z,28.30
2023-04-03T13:41:06.158Z,28.00
2023-04-03T13:43:38.027Z,26.60
2023-04-03T13:46:25.049Z,26.00
2023-04-03T13:48:54.431Z,26.30
2023-04-03T13:51:24.286Z,26.30
2023-04-03T13:54:14.282Z,25.70
2023-04-03T13:56:43.155Z,26.10
2023-04-03T13:59:13.054Z,25.80
2023-04-03T14:02:01.984Z,26.10
2023-04-03T14:04:32.698Z,26.00
2023-04-03T14:07:00.111Z,26.00
2023-04-03T14:09:28.585Z,24.40
2023-04-03T14:11:59.805Z,24.40
2023-04-03T14:14:32.842Z,23.80
2023-04-03T14:17:02.483Z,24.30
2023-04-03T14:19:36.439Z,25.00
2023-04-03T14:22:23.376Z,25.30
2023-04-03T14:24:52.532Z,24.40
2023-04-03T14:27:27.866Z,24.40
2023-04-03T14:29:56.899Z,24.80
2023-04-03T14:32:26.322Z,23.70
2023-04-03T14:34:54.108Z,24.30
2023-04-03T14:37:24.796Z,24.30
2023-04-03T14:39:54.314Z,24.20
2023-04-03T14:42:28.763Z,21.30
2023-04-03T14:44:55.723Z,20.50
2023-04-03T14:47:31.895Z,21.30
2023-04-03T14:50:01.104Z,22.30
2023-04-03T14:52:32.205Z,21.80
2023-04-03T14:54:59.493Z,22.30
2023-04-03T14:57:28.481Z,22.50
2023-04-03T14:59:55.584Z,22.20
2023-04-03T15:02:33.479Z,22.40
2023-04-03T15:05:05.018Z,22.00
2023-04-03T15:07:35.584Z,21.20
2023-04-03T15:10:14.653Z,21.20
2023-04-03T15:12:41.746Z,21.00
2023-04-03T15:15:09.393Z,20.30
2023-04-03T15:17:37.696Z,20.40
2023-04-03T15:20:12.426Z,19.10
2023-04-03T15:22:39.243Z,18.40
2023-04-03T15:25:06.493Z,18.30
2023-04-03T15:27:33.291Z,19.00
2023-04-03T15:30:00.372Z,19.50
2023-04-03T15:32:27.625Z,19.20
2023-04-03T15:34:56.728Z,18.60
2023-04-03T15:37:23.954Z,18.30
2023-04-03T15:39:51.084Z,19.60
2023-04-03T15:42:17.834Z,19.40
2023-04-03T15:44:44.604Z,19.80
2023-04-03T15:47:11.514Z,19.90
2023-04-03T15:49:39.089Z,19.50
2023-04-03T15:52:06.477Z,20.20
2023-04-03T15:54:33.286Z,20.00
2023-04-03T15:57:00.034Z,19.60
2023-04-03T15:59:27.089Z,20.30
2023-04-03T16:01:54.058Z,19.80
2023-04-03T16:04:21.913Z,20.20
2023-04-03T16:06:49.350Z,20.40
2023-04-03T16:09:16.412Z,20.50
2023-04-03T16:11:44.400Z,20.60
2023-04-03T16:14:11.499Z,20.30
2023-04-03T16:16:38.742Z,19.20
2023-04-03T16:19:06.008Z,19.10
2023-04-03T16:21:33.774Z,19.30
2023-04-03T16:24:01.541Z,19.30
2023-04-03T16:26:28.616Z,19.70
2023-04-03T16:28:55.660Z,19.20
2023-04-03T16:31:23.866Z,19.50
2023-04-03T16:33:51.028Z,19.60
2023-04-03T16:36:17.943Z,20.50
2023-04-03T16:38:45.215Z,19.50
2023-04-03T16:41:12.060Z,19.10
2023-04-03T16:43:38.893Z,19.60
2023-04-03T16:46:06.069Z,19.40
2023-04-03T16:48:33.036Z,20.30
2023-04-03T16:50:59.876Z,20.30
2023-04-03T16:53:27.585Z,20.70
2023-04-03T16:55:54.993Z,21.10
2023-04-03T16:58:23.416Z,21.00
2023-04-03T17:00:51.106Z,20.70
2023-04-03T17:03:18.090Z,20.60
2023-04-03T17:05:48.924Z,20.90
2023-04-03T17:08:17.662Z,20.50
2023-04-03T17:10:44.351Z,20.30
2023-04-03T17:13:11.206Z,20.70
2023-04-03T17:15:38.315Z,21.10
2023-04-03T17:18:05.613Z,21.50
2023-04-03T17:20:34.755Z,21.90
2023-04-03T17:23:01.646Z,21.90
2023-04-03T17:25:28.583Z,22.50
2023-04-03T17:27:55.438Z,22.50
2023-04-03T17:30:22.450Z,22.50
2023-04-03T17:32:49.320Z,22.70
2023-04-03T17:35:16.159Z,23.10
2023-04-03T17:37:42.932Z,23.30
2023-04-03T17:40:10.298Z,23.20
2023-04-03T17:42:37.073Z,23.70
2023-04-03T17:45:05.066Z,23.50
2023-04-03T17:47:31.800Z,23.80
2023-04-03T17:49:58.544Z,24.10
2023-04-03T17:52:28.258Z,24.20
2023-04-03T17:54:55.132Z,24.50
2023-04-03T17:57:21.836Z,24.50
2023-04-03T17:59:48.785Z,24.40
2023-04-03T18:02:15.677Z,24.20
2023-04-03T18:04:42.422Z,24.30
2023-04-03T18:07:09.945Z,24.40
2023-04-03T18:09:38.108Z,24.90
2023-04-03T18:12:07.251Z,24.90
2023-04-03T18:14:36.546Z,24.80
2023-04-03T18:17:03.731Z,25.00
2023-04-03T18:19:30.707Z,25.40
2023-04-03T18:22:01.488Z,25.30
2023-04-03T18:24:29.404Z,25.30
2023-04-03T18:27:00.349Z,26.30
2023-04-03T18:29:29.074Z,25.80
2023-04-03T18:31:57.070Z,26.10
2023-04-03T18:34:23.915Z,25.80
2023-04-03T18:36:52.375Z,25.80
2023-04-03T18:39:19.448Z,25.80
2023-04-03T18:41:47.591Z,26.10
2023-04-03T18:44:18.318Z,25.80
2023-04-03T18:46:45.654Z,25.70
2023-04-03T18:49:13.729Z,25.90
2023-04-03T18:51:40.972Z,26.40
2023-04-03T18:54:09.990Z,26.50
2023-04-03T18:56:37.637Z,26.40
2023-04-03T18:59:05.636Z,26.40
2023-04-03T19:01:33.865Z,26.70
2023-04-03T19:04:01.173Z,26.90
2023-04-03T19:06:28.190Z,27.20
2023-04-03T19:08:55.035Z,27.10
2023-04-03T19:11:22.999Z,27.30
2023-04-03T19:14:04.524Z,27.20
2023-04-03T19:16:36.588Z,27.00
2023-04-03T19:19:03.528Z,27.00
2023-04-03T19:21:30.254Z,27.30
2023-04-03T19:23:59.263Z,27.40
2023-04-03T19:26:27.052Z,27.60
2023-04-03T19:28:53.865Z,27.60
2023-04-03T19:31:22.294Z,27.60
2023-04-03T19:33:49.905Z,27.90
2023-04-03T19:36:17.669Z,28.40
2023-04-03T19:38:44.557Z,27.70
2023-04-03T19:41:23.005Z,27.90
2023-04-03T19:43:53.012Z,28.30
2023-04-03T19:46:25.473Z,28.00
2023-04-03T19:48:52.544Z,28.20
2023-04-03T19:51:19.460Z,28.50
2023-04-03T19:53:47.493Z,28.80
2023-04-03T19:56:16.628Z,28.70
2023-04-03T19:58:44.339Z,28.80
2023-04-03T20:01:11.509Z,29.00
2023-04-03T20:03:38.452Z,29.00
2023-04-03T20:06:05.497Z,29.50
2023-04-03T20:08:32.764Z,29.40
2023-04-03T20:10:59.599Z,29.20
2023-04-03T20:13:29.398Z,29.30
2023-04-03T20:15:59.251Z,30.00
2023-04-03T20:18:31.597Z,29.70
2023-04-03T20:21:08.841Z,29.60
2023-04-03T20:23:38.791Z,29.70
2023-04-03T20:26:11.348Z,29.80
2023-04-03T20:28:42.729Z,29.80
2023-04-03T20:31:10.077Z,29.60
2023-04-03T20:33:37.651Z,29.70
2023-04-03T20:36:04.617Z,30.00
2023-04-03T20:38:31.815Z,30.30
2023-04-03T20:41:00.353Z,30.30
2023-04-03T20:43:31.044Z,30.70
2023-04-03T20:46:01.423Z,31.40
2023-04-03T20:48:30.146Z,31.50
2023-04-03T20:50:58.146Z,31.90
2023-04-03T20:53:25.071Z,31.60
2023-04-03T20:56:00.602Z,31.50
2023-04-03T20:58:34.028Z,31.60
2023-04-03T21:01:01.327Z,31.80
2023-04-03T21:03:32.859Z,31.80
2023-04-03T21:06:00.586Z,31.60
2023-04-03T21:09:05.518Z,31.50
2023-04-03T21:12:10.185Z,31.90
2023-04-03T21:15:15.370Z,32.00
2023-04-03T21:18:09.893Z,32.30
2023-04-03T21:20:37.409Z,32.10
2023-04-03T21:23:05.072Z,32.10
2023-04-03T21:25:32.443Z,31.80
2023-04-03T21:27:59.645Z,31.50
2023-04-03T21:30:26.457Z,31.60
2023-04-03T21:32:53.201Z,31.50
2023-04-03T21:35:20.164Z,31.50
2023-04-03T21:37:46.924Z,31.50
2023-04-03T21:40:13.825Z,31.50
2023-04-03T21:42:40.640Z,31.20
2023-04-03T21:45:07.899Z,31.40
2023-04-03T21:47:35.603Z,31.20
2023-04-03T21:50:03.492Z,31.20
2023-04-03T21:52:30.213Z,31.30
2023-04-03T21:54:57.007Z,31.50
2023-04-03T21:57:23.999Z,31.60
2023-04-03T21:59:51.152Z,31.40
2023-04-03T22:02:17.992Z,31.50
2023-04-03T22:04:46.839Z,31.40
2023-04-03T22:07:14.185Z,31.30
2023-04-03T22:09:41.120Z,31.20
2023-04-03T22:12:08.950Z,31.80
2023-04-03T22:14:36.644Z,31.90
2023-04-03T22:17:03.853Z,32.10
2023-04-03T22:19:30.596Z,32.20
2023-04-03T22:21:57.334Z,32.50
2023-04-03T22:24:24.132Z,32.60
2023-04-03T22:26:51.195Z,33.10
2023-04-03T22:29:18.001Z,32.90
2023-04-03T22:31:44.788Z,33.00
2023-04-03T22:34:11.759Z,33.20
2023-04-03T22:36:38.865Z,33.40
2023-04-03T22:39:07.160Z,33.60
2023-04-03T22:41:34.012Z,33.90
2023-04-03T22:44:01.051Z,33.90
2023-04-03T22:46:28.288Z,33.90
2023-04-03T22:48:55.148Z,34.10
2023-04-03T22:51:21.876Z,34.20
2023-04-03T22:53:48.746Z,34.30
2023-04-03T22:56:15.518Z,34.50
2023-04-03T22:58:42.421Z,34.50
2023-04-03T23:01:13.615Z,34.60
2023-04-03T23:03:41.724Z,34.60
2023-04-03T23:06:09.881Z,34.90
2023-04-03T23:08:43.856Z,34.80
2023-04-03T23:11:10.720Z,34.90
2023-04-03T23:13:37.896Z,35.20
2023-04-03T23:16:05.425Z,35.00
2023-04-03T23:18:33.059Z,35.00
2023-04-03T23:21:01.279Z,35.30
2023-04-03T23:23:28.203Z,35.40
2023-04-03T23:25:57.031Z,35.60
2023-04-03T23:28:24.086Z,35.90
2023-04-03T23:30:57.036Z,35.90
2023-04-03T23:33:23.774Z,36.20
2023-04-03T23:35:52.539Z,36.20
2023-04-03T23:38:19.358Z,36.30
2023-04-03T23:40:47.200Z,36.20
2023-04-03T23:43:14.053Z,36.70
2023-04-03T23:45:41.454Z,36.70
2023-04-03T23:48:08.986Z,37.10
2023-04-03T23:50:35.751Z,37.30
2023-04-03T23:53:02.577Z,38.10
2023-04-03T23:55:29.341Z,37.70
2023-04-03T23:57:56.355Z,37.80
